Time;durP1;ratioP1;P1;durP2;ratioP2;P2;SDS_P1;SDS_P2;PMS_P1;PMS_P2;Temp;Humidity;BMP_temperature;BMP_pressure;BME280_temperature;BME280_humidity;BME280_pressure;Samples;Min_cycle;Max_cycle;Signal;HPM_P1;HPM_P2
2022/09/30 00:01:01;;;;;;;33.75;3.47;;;9.40;99.90;;;;;;5130448;27;20031;-71
2022/09/30 00:03:27;;;;;;;32.92;2.85;;;9.40;99.90;;;;;;5130663;27;20050;-70
2022/09/30 00:06:00;;;;;;;47.55;3.78;;;9.30;99.90;;;;;;5112962;28;20047;-70
2022/09/30 00:08:26;;;;;;;8.88;2.75;;;9.30;99.90;;;;;;5131065;28;20039;-70
2022/09/30 00:11:00;;;;;;;2.90;1.80;;;9.20;99.90;;;;;;5112602;28;20456;-70
2022/09/30 00:13:26;;;;;;;4.82;1.73;;;9.30;99.90;;;;;;5095756;28;20077;-70
2022/09/30 00:15:51;;;;;;;;;;;9.30;99.90;;;;;;5121554;28;20044;-70
2022/09/30 00:18:17;;;;;;;2.63;1.63;;;9.20;99.90;;;;;;5091303;28;19969;-70
2022/09/30 00:20:43;;;;;;;4.15;2.60;;;9.30;99.90;;;;;;5110169;28;20046;-72
2022/09/30 00:23:08;;;;;;;3.47;2.40;;;9.20;99.90;;;;;;5111175;28;20085;-70
2022/09/30 00:25:34;;;;;;;4.85;2.85;;;9.30;99.90;;;;;;5109949;28;20043;-70
2022/09/30 00:28:00;;;;;;;3.17;2.20;;;9.30;99.90;;;;;;5114988;28;20051;-70
2022/09/30 00:30:25;;;;;;;3.42;2.53;;;9.30;99.90;;;;;;5114198;27;20032;-71
2022/09/30 00:32:51;;;;;;;3.33;2.20;;;9.40;99.90;;;;;;5095867;28;20096;-72
2022/09/30 00:35:17;;;;;;;4.68;2.88;;;9.30;99.90;;;;;;5109236;28;20420;-70
2022/09/30 00:37:43;;;;;;;11.32;2.78;;;9.30;99.90;;;;;;5093994;28;20548;-70
2022/09/30 00:40:10;;;;;;;3.03;2.20;;;9.30;99.90;;;;;;5094413;28;20055;-70
2022/09/30 00:42:39;;;;;;;3.58;2.70;;;9.30;99.90;;;;;;5092486;28;20043;-71
2022/09/30 00:45:09;;;;;;;12.05;3.90;;;9.30;99.90;;;;;;5094153;28;20122;-71
2022/09/30 00:47:50;;;;;;;3.80;2.72;;;9.30;99.90;;;;;;5092620;28;20085;-70
2022/09/30 00:50:17;;;;;;;5.22;3.00;;;9.20;99.90;;;;;;5109301;28;20097;-70
2022/09/30 00:52:47;;;;;;;4.28;2.83;;;9.20;99.90;;;;;;5092707;28;20473;-71
2022/09/30 00:55:26;;;;;;;15.90;3.90;;;9.20;99.90;;;;;;5094332;28;20109;-70
2022/09/30 00:57:52;;;;;;;20.83;2.92;;;9.20;99.90;;;;;;5092891;28;20368;-70
2022/09/30 01:00:18;;;;;;;51.28;4.72;;;9.20;99.90;;;;;;5112891;28;20052;-70
2022/09/30 01:02:46;;;;;;;55.17;5.15;;;9.10;99.90;;;;;;5111484;28;20047;-70
2022/09/30 01:05:12;;;;;;;11.23;3.20;;;9.10;99.90;;;;;;5113429;28;20126;-71
2022/09/30 01:07:38;;;;;;;4.95;2.90;;;9.10;99.90;;;;;;5113724;28;20115;-72
2022/09/30 01:10:04;;;;;;;6.30;3.90;;;9.00;99.90;;;;;;5101126;28;20522;-71
2022/09/30 01:12:30;;;;;;;5.55;3.53;;;9.00;99.90;;;;;;5092644;28;20480;-71
2022/09/30 01:14:57;;;;;;;8.88;4.60;;;9.00;99.90;;;;;;5093669;28;20046;-71
2022/09/30 01:17:35;;;;;;;5.82;3.70;;;9.00;99.90;;;;;;5091199;28;20048;-72
2022/09/30 01:20:25;;;;;;;6.82;4.18;;;9.00;99.90;;;;;;5092709;28;20091;-71
2022/09/30 01:23:03;;;;;;;7.15;3.55;;;9.10;99.90;;;;;;5093495;28;20546;-70
2022/09/30 01:26:11;;;;;;;7.78;3.47;;;9.10;99.90;;;;;;5104018;28;20040;-72
2022/09/30 01:29:11;;;;;;;6.90;3.40;;;9.10;99.90;;;;;;5086109;28;20084;-70
2022/09/30 01:31:49;;;;;;;6.68;3.70;;;9.00;99.90;;;;;;5068973;28;20048;-70
2022/09/30 01:34:52;;;;;;;7.13;3.95;;;9.00;99.90;;;;;;5117349;27;20492;-70
2022/09/30 01:37:34;;;;;;;6.63;4.03;;;9.00;99.90;;;;;;5116117;27;20051;-70
2022/09/30 01:40:21;;;;;;;11.25;3.95;;;8.90;99.90;;;;;;5133946;27;20050;-70
2022/09/30 01:42:47;;;;;;;;;;;8.90;99.90;;;;;;5133865;27;20126;-71
2022/09/30 01:45:17;;;;;;;6.22;3.53;;;8.90;99.90;;;;;;5133969;27;20018;-70
2022/09/30 01:47:49;;;;;;;7.35;3.92;;;8.90;99.90;;;;;;5131468;27;20636;-70
2022/09/30 01:50:17;;;;;;;5.70;3.60;;;8.90;99.90;;;;;;5114974;27;20122;-70
2022/09/30 01:53:09;;;;;;;5.65;3.75;;;8.90;99.90;;;;;;5133232;27;20040;-71
2022/09/30 01:55:41;;;;;;;6.43;3.70;;;8.80;99.90;;;;;;5133320;27;20118;-71
2022/09/30 01:58:16;;;;;;;5.15;3.42;;;8.90;99.90;;;;;;5118214;27;20077;-73
2022/09/30 02:00:48;;;;;;;5.95;4.00;;;8.80;99.90;;;;;;5093627;28;20100;-73
2022/09/30 02:03:20;;;;;;;6.85;4.15;;;8.80;99.90;;;;;;5111784;27;20414;-73
2022/09/30 02:05:46;;;;;;;7.03;4.40;;;8.80;99.90;;;;;;5111924;28;20044;-73
2022/09/30 02:08:25;;;;;;;7.53;4.15;;;8.80;99.90;;;;;;5112949;27;20532;-73
2022/09/30 02:11:17;;;;;;;7.85;4.82;;;8.70;99.90;;;;;;5130774;27;20118;-73
2022/09/30 02:14:15;;;;;;;6.63;4.18;;;8.70;99.90;;;;;;5131831;27;20071;-74
2022/09/30 02:16:47;;;;;;;8.15;4.30;;;8.70;99.90;;;;;;5107444;27;20492;-74
2022/09/30 02:19:19;;;;;;;7.30;4.45;;;8.70;99.90;;;;;;5112435;28;20047;-73
2022/09/30 02:21:51;;;;;;;7.63;4.60;;;8.70;99.90;;;;;;5093463;28;20040;-73
2022/09/30 02:24:21;;;;;;;8.85;4.70;;;8.70;99.90;;;;;;5113073;28;20044;-72
2022/09/30 02:26:48;;;;;;;8.10;4.50;;;8.70;99.90;;;;;;5093772;28;20046;-73
2022/09/30 02:29:20;;;;;;;7.35;4.72;;;8.60;99.90;;;;;;5130076;27;20042;-73
2022/09/30 02:31:51;;;;;;;6.78;4.20;;;8.70;99.90;;;;;;5104339;28;20097;-73
2022/09/30 02:34:23;;;;;;;11.55;3.63;;;8.60;99.90;;;;;;5112041;28;20055;-74
2022/09/30 02:37:07;;;;;;;39.80;6.60;;;8.60;99.90;;;;;;5111551;28;20129;-73
2022/09/30 02:39:42;;;;;;;371.40;19.88;;;8.50;99.90;;;;;;5101253;27;20054;-74
2022/09/30 02:42:19;;;;;;;139.48;9.88;;;8.50;99.90;;;;;;5112475;27;20047;-73
2022/09/30 02:44:46;;;;;;;;;;;8.40;99.90;;;;;;5094074;28;20059;-73
2022/09/30 02:47:45;;;;;;;100.00;6.68;;;8.40;99.90;;;;;;5093194;28;19916;-73
2022/09/30 02:50:43;;;;;;;6.28;2.83;;;8.30;99.90;;;;;;5111148;28;20043;-70
2022/09/30 02:53:39;;;;;;;5.25;3.20;;;8.20;99.90;;;;;;5127149;27;20070;-70
2022/09/30 02:56:20;;;;;;;14.57;3.80;;;8.10;99.90;;;;;;5108156;27;20051;-70
2022/09/30 02:58:48;;;;;;;10.43;3.85;;;8.00;99.90;;;;;;5132134;27;20126;-70
2022/09/30 03:01:15;;;;;;;7.18;3.92;;;8.00;99.90;;;;;;5113294;27;20049;-70
2022/09/30 03:03:55;;;;;;;7.32;4.20;;;8.00;99.90;;;;;;5092895;28;20040;-70
2022/09/30 03:06:21;;;;;;;6.00;3.88;;;8.00;99.90;;;;;;5131437;27;20545;-71
2022/09/30 03:08:47;;;;;;;7.65;4.35;;;8.00;99.90;;;;;;5131323;27;20403;-71
2022/09/30 03:11:16;;;;;;;6.38;4.03;;;8.00;99.90;;;;;;5111680;28;20071;-70
2022/09/30 03:14:10;;;;;;;126.78;8.88;;;8.00;99.90;;;;;;5111233;28;20046;-70
2022/09/30 03:16:54;;;;;;;16.17;4.18;;;8.00;99.90;;;;;;5092058;28;20047;-72
2022/09/30 03:20:01;;;;;;;171.93;6.68;;;7.90;99.90;;;;;;5093811;27;20365;-70
2022/09/30 03:22:42;;;;;;;52.78;4.82;;;7.80;99.90;;;;;;5118675;27;20043;-71
2022/09/30 03:25:29;;;;;;;20.23;2.90;;;7.70;99.90;;;;;;5132377;27;20042;-70
2022/09/30 03:28:15;;;;;;;;;;;7.70;99.90;;;;;;5131748;27;20038;-70
2022/09/30 03:30:50;;;;;;;16.20;4.13;;;7.60;99.90;;;;;;5113035;27;19915;-70
2022/09/30 03:33:33;;;;;;;82.53;7.00;;;7.60;99.90;;;;;;5112659;27;20491;-70
2022/09/30 03:36:08;;;;;;;31.38;4.07;;;7.60;99.90;;;;;;5130588;27;20059;-70
2022/09/30 03:39:15;;;;;;;49.72;4.53;;;7.60;99.90;;;;;;5113898;27;20054;-71
2022/09/30 03:41:50;;;;;;;13.90;3.87;;;7.50;99.90;;;;;;5071811;27;20054;-70
2022/09/30 03:44:23;;;;;;;18.90;3.70;;;7.50;99.90;;;;;;5113659;27;20461;-70
2022/09/30 03:47:05;;;;;;;17.60;4.60;;;7.60;99.90;;;;;;5130221;27;20131;-70
2022/09/30 03:49:35;;;;;;;18.63;3.88;;;7.50;99.90;;;;;;5113178;27;20054;-71
2022/09/30 03:52:09;;;;;;;21.77;4.40;;;7.50;99.90;;;;;;5113398;27;20047;-70
2022/09/30 03:54:48;;;;;;;14.40;5.22;;;7.50;99.90;;;;;;5124455;27;20040;-70
2022/09/30 03:57:13;;;;;;;29.10;6.07;;;7.50;99.90;;;;;;5110941;28;20040;-71
2022/09/30 03:59:39;;;;;;;54.15;5.22;;;7.50;99.90;;;;;;5092177;28;20054;-72
2022/09/30 04:02:09;;;;;;;68.95;7.03;;;7.40;99.90;;;;;;5107636;28;20043;-70
2022/09/30 04:04:35;;;;;;;55.70;5.45;;;7.40;99.90;;;;;;5110199;28;20036;-70
2022/09/30 04:07:01;;;;;;;;;;;7.40;99.90;;;;;;5121372;28;20809;-70
2022/09/30 04:09:27;;;;;;;62.60;6.57;;;7.30;99.90;;;;;;5131359;28;19921;-71
2022/09/30 04:11:52;;;;;;;99.80;6.68;;;7.30;99.90;;;;;;5130470;28;20089;-70
2022/09/30 04:14:18;;;;;;;65.30;5.95;;;7.30;99.90;;;;;;5131618;28;20065;-71
2022/09/30 04:16:43;;;;;;;99.60;6.57;;;7.40;99.90;;;;;;5096442;28;20040;-70
2022/09/30 04:19:09;;;;;;;60.65;5.32;;;7.20;99.90;;;;;;5109284;28;20062;-70
2022/09/30 04:21:35;;;;;;;116.72;6.32;;;7.20;99.90;;;;;;5109235;28;20069;-70
2022/09/30 04:24:00;;;;;;;66.30;8.40;;;7.40;99.90;;;;;;5109237;28;20105;-70
2022/09/30 04:26:26;;;;;;;54.80;4.93;;;7.10;99.90;;;;;;5092725;28;20090;-70
2022/09/30 04:28:52;;;;;;;27.85;4.97;;;7.00;99.90;;;;;;5110194;28;20050;-70
2022/09/30 04:31:19;;;;;;;29.52;4.57;;;7.00;99.90;;;;;;5117244;28;20043;-70
2022/09/30 04:33:45;;;;;;;39.85;6.00;;;7.00;99.90;;;;;;5111394;28;20082;-70
2022/09/30 04:36:11;;;;;;;81.18;5.53;;;7.00;99.90;;;;;;5130684;28;20090;-70
2022/09/30 04:38:37;;;;;;;115.78;9.32;;;6.90;99.90;;;;;;5131494;28;20399;-70
2022/09/30 04:41:05;;;;;;;121.20;7.20;;;6.90;99.90;;;;;;5111883;28;20047;-70
2022/09/30 04:43:31;;;;;;;188.25;7.93;;;6.80;99.90;;;;;;5113089;28;20051;-70
2022/09/30 04:45:57;;;;;;;113.47;5.38;;;6.80;99.90;;;;;;5123298;28;20035;-71
2022/09/30 04:48:23;;;;;;;27.10;4.10;;;6.80;99.90;;;;;;5109766;28;20047;-70
2022/09/30 04:50:49;;;;;;;;;;;6.70;99.90;;;;;;5117321;28;20033;-70
2022/09/30 04:53:16;;;;;;;21.50;4.00;;;6.70;99.90;;;;;;5113136;28;19966;-70
2022/09/30 04:55:42;;;;;;;16.67;3.55;;;6.70;99.90;;;;;;5111930;28;20070;-71
2022/09/30 04:58:08;;;;;;;;;;;6.70;99.90;;;;;;5131086;28;20130;-70
2022/09/30 05:00:34;;;;;;;60.83;4.95;;;6.70;99.90;;;;;;5112432;28;20005;-70
2022/09/30 05:02:59;;;;;;;49.90;4.70;;;6.70;99.90;;;;;;5129267;28;20061;-70
2022/09/30 05:05:25;;;;;;;67.28;4.93;;;6.60;99.90;;;;;;5091712;28;20107;-70
2022/09/30 05:07:51;;;;;;;22.60;3.85;;;6.70;99.90;;;;;;5092003;28;20044;-70
2022/09/30 05:10:17;;;;;;;27.92;5.57;;;6.70;99.90;;;;;;5110524;28;20093;-70
2022/09/30 05:12:44;;;;;;;65.38;6.07;;;6.70;99.90;;;;;;5094692;28;20202;-71
2022/09/30 05:15:10;;;;;;;73.70;5.43;;;6.60;99.90;;;;;;5129582;27;20050;-70
2022/09/30 05:17:36;;;;;;;70.55;6.25;;;6.50;99.90;;;;;;5133694;27;20099;-70
2022/09/30 05:20:03;;;;;;;37.53;4.72;;;6.50;99.90;;;;;;5124863;27;20361;-70
2022/09/30 05:22:29;;;;;;;21.80;4.13;;;6.40;99.90;;;;;;5134729;27;20043;-71
2022/09/30 05:24:57;;;;;;;31.35;4.93;;;6.40;99.90;;;;;;5115806;27;20039;-70
2022/09/30 05:27:23;;;;;;;32.60;5.20;;;6.40;99.90;;;;;;5134274;27;20070;-70
2022/09/30 05:29:49;;;;;;;;;;;6.40;99.90;;;;;;5134083;27;20043;-71
2022/09/30 05:32:15;;;;;;;63.13;5.97;;;6.40;99.90;;;;;;5133364;27;19964;-72
2022/09/30 05:34:41;;;;;;;93.65;7.35;;;6.40;99.90;;;;;;5129502;27;20058;-72
2022/09/30 05:37:08;;;;;;;38.25;5.28;;;6.40;99.90;;;;;;5095219;28;20556;-72
2022/09/30 05:39:34;;;;;;;34.42;5.15;;;6.50;99.90;;;;;;5113608;28;20127;-72
2022/09/30 05:42:00;;;;;;;26.52;5.60;;;6.50;99.90;;;;;;5127347;27;20477;-72
2022/09/30 05:44:25;;;;;;;40.75;5.22;;;6.40;99.90;;;;;;5134277;27;20042;-71
2022/09/30 05:46:51;;;;;;;10.55;4.35;;;6.40;99.90;;;;;;5097592;28;20384;-71
2022/09/30 05:49:17;;;;;;;10.38;3.95;;;6.40;99.90;;;;;;5132159;27;20050;-72
2022/09/30 05:51:43;;;;;;;7.93;5.15;;;6.40;99.90;;;;;;5098640;27;20047;-71
2022/09/30 05:54:10;;;;;;;10.57;4.28;;;6.40;99.90;;;;;;5133517;27;20037;-71
2022/09/30 05:56:39;;;;;;;20.80;3.38;;;6.50;99.90;;;;;;5133666;27;20043;-72
2022/09/30 05:59:05;;;;;;;43.50;4.15;;;6.50;99.90;;;;;;5133152;27;20417;-72
2022/09/30 06:01:32;;;;;;;8.00;2.60;;;6.40;99.90;;;;;;5131534;27;20027;-72
2022/09/30 06:03:58;;;;;;;4.88;3.35;;;6.20;99.90;;;;;;5114726;27;20050;-71
2022/09/30 06:06:23;;;;;;;5.70;3.58;;;6.20;99.90;;;;;;5115238;27;20051;-72
2022/09/30 06:08:49;;;;;;;7.38;3.90;;;6.30;99.90;;;;;;5133122;27;20061;-73
2022/09/30 06:11:17;;;;;;;6.22;4.40;;;6.30;99.90;;;;;;5115067;27;20047;-72
2022/09/30 06:13:44;;;;;;;7.53;4.47;;;6.30;99.90;;;;;;5133653;27;20073;-72
2022/09/30 06:16:11;;;;;;;9.50;5.28;;;6.40;99.90;;;;;;5131651;27;20039;-72
2022/09/30 06:18:39;;;;;;;9.23;5.38;;;6.40;99.90;;;;;;5132913;27;20039;-71
2022/09/30 06:21:06;;;;;;;66.07;6.07;;;6.60;99.90;;;;;;5131901;27;20515;-72
2022/09/30 06:23:33;;;;;;;12.98;5.65;;;6.70;99.90;;;;;;5093770;28;20043;-71
2022/09/30 06:26:01;;;;;;;8.38;5.03;;;6.70;99.90;;;;;;5113331;27;20047;-71
2022/09/30 06:28:27;;;;;;;7.70;3.53;;;6.80;99.90;;;;;;5141569;27;20046;-69
2022/09/30 06:30:53;;;;;;;5.18;3.08;;;6.80;99.90;;;;;;5135009;27;20083;-74
2022/09/30 06:33:19;;;;;;;;;;;6.80;99.90;;;;;;5152932;27;20038;-72
2022/09/30 06:35:46;;;;;;;5.93;3.35;;;6.70;99.90;;;;;;5134406;27;20026;-71
2022/09/30 06:38:14;;;;;;;5.43;3.40;;;6.70;99.90;;;;;;5113673;27;20460;-72
2022/09/30 06:40:41;;;;;;;7.10;4.32;;;6.70;99.90;;;;;;5114674;27;20054;-72
2022/09/30 06:43:07;;;;;;;11.40;5.85;;;6.70;99.90;;;;;;5114232;27;20469;-72
2022/09/30 06:45:34;;;;;;;14.18;6.78;;;6.80;99.90;;;;;;5097333;27;20043;-72
2022/09/30 06:48:02;;;;;;;14.68;7.93;;;6.90;99.90;;;;;;5105143;27;20042;-70
2022/09/30 06:50:29;;;;;;;13.68;8.15;;;7.00;99.90;;;;;;5152644;27;20074;-71
2022/09/30 06:53:05;;;;;;;17.60;7.53;;;7.20;99.90;;;;;;5125370;27;20043;-74
2022/09/30 06:55:31;;;;;;;14.80;7.22;;;7.30;99.90;;;;;;5129898;27;20114;-72
2022/09/30 06:57:57;;;;;;;11.80;6.70;;;7.40;99.90;;;;;;5131986;27;20039;-74
2022/09/30 07:00:25;;;;;;;12.07;6.80;;;7.50;99.90;;;;;;5132193;27;20041;-73
2022/09/30 07:02:55;;;;;;;12.20;6.85;;;7.50;99.90;;;;;;5131765;27;20451;-71
2022/09/30 07:05:22;;;;;;;13.45;7.50;;;7.70;99.90;;;;;;5131550;27;20122;-72
2022/09/30 07:07:48;;;;;;;17.08;7.28;;;7.70;99.90;;;;;;5127391;27;20050;-74
2022/09/30 07:10:13;;;;;;;13.88;7.38;;;7.80;99.90;;;;;;5134103;27;20043;-73
2022/09/30 07:12:41;;;;;;;14.07;8.27;;;7.90;99.90;;;;;;5137000;27;20741;-73
2022/09/30 07:15:07;;;;;;;12.55;6.93;;;8.00;99.90;;;;;;5133823;27;20115;-74
2022/09/30 07:17:32;;;;;;;;;;;8.10;99.90;;;;;;5134342;27;20536;-74
2022/09/30 07:19:58;;;;;;;12.57;7.20;;;8.20;99.90;;;;;;5136896;27;19930;-75
2022/09/30 07:22:28;;;;;;;13.10;6.80;;;8.20;99.90;;;;;;5120201;27;20138;-75
2022/09/30 07:24:56;;;;;;;13.55;6.82;;;8.30;99.90;;;;;;5126700;27;20043;-73
2022/09/30 07:27:22;;;;;;;14.95;7.65;;;8.30;99.90;;;;;;5148120;27;20078;-72
2022/09/30 07:29:48;;;;;;;14.65;7.22;;;8.40;99.90;;;;;;5109747;27;20088;-74
2022/09/30 07:32:14;;;;;;;14.85;8.05;;;8.40;99.90;;;;;;5137888;27;20035;-76
2022/09/30 07:34:43;;;;;;;13.95;6.90;;;8.60;99.90;;;;;;5123819;27;20523;-73
2022/09/30 07:37:14;;;;;;;13.18;7.57;;;8.60;99.90;;;;;;5147916;27;20053;-73
2022/09/30 07:39:42;;;;;;;12.35;7.47;;;8.80;99.90;;;;;;5122111;27;20070;-72
2022/09/30 07:42:08;;;;;;;13.88;7.35;;;8.80;99.90;;;;;;5117225;27;20068;-73
2022/09/30 07:44:35;;;;;;;13.48;7.15;;;8.90;99.90;;;;;;5117089;27;20035;-73
2022/09/30 07:47:02;;;;;;;13.05;6.40;;;9.00;99.90;;;;;;5147103;27;20074;-75
2022/09/30 07:49:27;;;;;;;;;;;9.10;99.90;;;;;;5149683;27;20551;-73
2022/09/30 07:51:58;;;;;;;12.63;6.65;;;9.20;99.90;;;;;;5131014;27;19919;-73
2022/09/30 07:54:27;;;;;;;11.95;6.40;;;9.30;99.90;;;;;;5127551;27;20050;-74
2022/09/30 07:56:53;;;;;;;13.27;7.45;;;9.30;99.90;;;;;;5151426;27;20039;-72
2022/09/30 07:59:20;;;;;;;10.85;6.43;;;9.40;99.90;;;;;;5150879;27;20162;-73
2022/09/30 08:01:46;;;;;;;10.63;5.97;;;9.50;99.90;;;;;;5122096;27;20512;-73
2022/09/30 08:04:13;;;;;;;11.43;6.40;;;9.60;99.90;;;;;;5132199;27;20038;-72
2022/09/30 08:06:42;;;;;;;13.63;6.75;;;9.60;99.90;;;;;;5146452;27;20047;-73
2022/09/30 08:09:08;;;;;;;11.50;6.00;;;9.70;99.90;;;;;;5150956;27;20038;-73
2022/09/30 08:11:35;;;;;;;12.20;6.13;;;9.70;99.90;;;;;;5129017;27;20034;-73
2022/09/30 08:14:01;;;;;;;10.15;6.10;;;9.80;99.90;;;;;;5127249;27;20034;-75
2022/09/30 08:16:27;;;;;;;;;;;9.90;99.90;;;;;;5129119;27;20405;-73
2022/09/30 08:18:58;;;;;;;12.73;6.80;;;10.00;99.90;;;;;;5130720;27;20524;-73
2022/09/30 08:21:25;;;;;;;11.10;5.55;;;10.10;99.90;;;;;;5130562;27;20047;-74
2022/09/30 08:23:50;;;;;;;;;;;10.20;99.90;;;;;;5121222;27;20111;-73
2022/09/30 08:26:17;;;;;;;11.00;5.85;;;10.30;99.90;;;;;;5129476;27;20783;-73
2022/09/30 08:28:45;;;;;;;;;;;10.30;99.90;;;;;;5136537;27;20160;-73
2022/09/30 08:31:15;;;;;;;12.05;5.47;;;10.50;99.90;;;;;;5146795;27;19956;-74
2022/09/30 08:33:41;;;;;;;10.07;5.82;;;10.50;99.90;;;;;;5132645;27;20083;-72
2022/09/30 08:36:08;;;;;;;;;;;10.60;99.90;;;;;;5141905;27;20407;-75
2022/09/30 08:38:34;;;;;;;10.07;5.03;;;10.70;99.90;;;;;;5126195;27;19923;-73
2022/09/30 08:41:16;;;;;;;10.05;5.55;;;10.70;99.90;;;;;;5150892;27;20118;-72
2022/09/30 08:43:58;;;;;;;11.32;5.95;;;10.80;99.90;;;;;;5131456;27;20043;-73
2022/09/30 08:46:49;;;;;;;11.60;5.72;;;10.90;99.90;;;;;;5115849;27;20058;-73
2022/09/30 08:49:41;;;;;;;13.93;5.50;;;11.00;99.90;;;;;;5130877;27;20043;-73
2022/09/30 08:52:15;;;;;;;9.80;5.30;;;11.20;99.90;;;;;;5154933;27;20047;-75
2022/09/30 08:54:46;;;;;;;8.50;5.07;;;11.20;99.90;;;;;;5155356;27;20796;-73
2022/09/30 08:57:12;;;;;;;10.70;5.32;;;11.30;99.90;;;;;;5145498;27;20039;-73
2022/09/30 08:59:51;;;;;;;8.75;5.35;;;11.40;99.90;;;;;;5149360;27;20041;-73
2022/09/30 09:02:52;;;;;;;8.43;4.78;;;11.50;99.90;;;;;;5126879;27;20035;-72
2022/09/30 09:05:29;;;;;;;11.30;5.30;;;11.50;99.90;;;;;;5044724;28;20037;-73
2022/09/30 09:08:22;;;;;;;10.77;5.38;;;11.60;99.90;;;;;;5122750;27;20054;-73
2022/09/30 09:11:15;;;;;;;9.82;5.30;;;11.70;99.90;;;;;;5154807;27;20042;-73
2022/09/30 09:14:04;;;;;;;11.18;5.65;;;11.80;99.90;;;;;;5152669;27;20068;-72
2022/09/30 09:17:12;;;;;;;10.50;5.75;;;11.90;99.90;;;;;;5151469;27;20043;-74
2022/09/30 09:19:49;;;;;;;11.10;5.50;;;12.00;99.90;;;;;;5144777;27;20046;-74
2022/09/30 09:22:14;;;;;;;11.48;6.70;;;12.10;99.90;;;;;;5146634;27;20151;-72
2022/09/30 09:24:46;;;;;;;10.73;5.78;;;12.20;99.90;;;;;;5115377;27;20115;-74
2022/09/30 09:27:23;;;;;;;9.57;5.90;;;12.30;99.90;;;;;;5113001;28;20077;-75
2022/09/30 09:30:00;;;;;;;12.32;5.95;;;12.40;99.90;;;;;;5113695;28;20476;-73
2022/09/30 09:32:26;;;;;;;;;;;12.40;99.90;;;;;;5111445;28;20036;-74
2022/09/30 09:34:57;;;;;;;8.77;5.25;;;12.50;99.90;;;;;;5112586;28;20435;-73
2022/09/30 09:40:42;;;;;;;9.82;5.15;;;12.60;99.90;;;;;;5095109;28;20447;-73
2022/09/30 09:43:38;;;;;;;10.65;5.78;;;12.70;99.90;;;;;;5101060;27;20049;-74
2022/09/30 09:46:14;;;;;;;11.25;5.55;;;12.80;99.90;;;;;;5100370;27;20078;-74
2022/09/30 09:48:39;;;;;;;9.48;5.63;;;12.80;99.90;;;;;;5115559;27;20050;-74
2022/09/30 09:51:27;;;;;;;9.10;5.22;;;12.90;99.90;;;;;;5133733;27;20038;-74
2022/09/30 09:53:57;;;;;;;14.18;5.75;;;13.10;99.90;;;;;;5115754;27;20096;-73
2022/09/30 09:56:28;;;;;;;9.82;5.40;;;13.10;99.90;;;;;;5133325;27;20055;-74
2022/09/30 09:59:23;;;;;;;9.93;5.65;;;13.10;99.90;;;;;;5114422;27;20361;-74
2022/09/30 10:01:53;;;;;;;12.35;6.43;;;13.20;99.90;;;;;;5108065;27;20495;-74
2022/09/30 10:04:25;;;;;;;10.75;6.68;;;13.40;99.90;;;;;;5114983;27;20673;-73
2022/09/30 10:06:58;;;;;;;13.13;6.55;;;13.40;99.90;;;;;;5115212;27;20054;-74
2022/09/30 10:09:24;;;;;;;9.60;6.10;;;13.50;99.90;;;;;;5103138;28;20081;-73
2022/09/30 10:12:11;;;;;;;11.70;6.93;;;13.60;99.90;;;;;;5112873;28;20553;-73
2022/09/30 10:14:45;;;;;;;16.53;7.13;;;13.60;99.90;;;;;;5112627;28;20378;-73
2022/09/30 10:17:34;;;;;;;14.75;8.07;;;13.70;99.90;;;;;;5093826;28;20599;-75
2022/09/30 10:20:15;;;;;;;13.68;8.07;;;13.80;99.90;;;;;;5112028;28;20048;-73
2022/09/30 10:22:41;;;;;;;14.85;7.70;;;13.90;99.90;;;;;;5094976;28;20086;-73
2022/09/30 10:25:13;;;;;;;15.30;9.07;;;14.00;99.90;;;;;;5094815;28;20075;-73
2022/09/30 10:27:49;;;;;;;15.45;8.85;;;14.10;99.90;;;;;;5093646;28;20054;-73
2022/09/30 10:30:30;;;;;;;13.23;7.82;;;14.10;99.90;;;;;;5112407;28;20036;-76
2022/09/30 10:32:55;;;;;;;15.85;8.65;;;14.20;99.90;;;;;;5094024;28;20051;-71
2022/09/30 10:35:23;;;;;;;15.00;7.93;;;14.30;99.90;;;;;;5111083;28;20057;-71
2022/09/30 10:37:53;;;;;;;11.95;7.40;;;14.30;99.90;;;;;;5078396;28;20043;-72
2022/09/30 10:40:26;;;;;;;11.90;6.30;;;14.40;99.90;;;;;;5123625;27;20078;-71
2022/09/30 10:42:52;;;;;;;14.63;7.72;;;14.60;99.90;;;;;;5132021;27;20476;-73
2022/09/30 10:45:21;;;;;;;14.50;7.32;;;14.70;99.90;;;;;;5113864;27;20061;-73
2022/09/30 10:47:52;;;;;;;12.15;6.18;;;14.90;99.90;;;;;;5107579;28;20389;-71
2022/09/30 10:50:26;;;;;;;10.68;6.63;;;15.00;99.90;;;;;;5110769;28;20044;-73
2022/09/30 10:52:57;;;;;;;12.82;7.05;;;15.10;99.90;;;;;;5112941;27;20384;-72
2022/09/30 10:55:34;;;;;;;10.88;6.45;;;15.30;99.90;;;;;;5120667;27;20050;-72
2022/09/30 10:58:34;;;;;;;12.48;6.35;;;15.40;99.90;;;;;;5141824;27;20121;-72
2022/09/30 11:01:31;;;;;;;10.02;5.25;;;15.40;99.90;;;;;;5151932;27;20114;-77
2022/09/30 11:04:26;;;;;;;10.80;6.07;;;15.50;99.90;;;;;;5145622;27;20109;-72
2022/09/30 11:06:59;;;;;;;13.50;6.55;;;15.70;99.90;;;;;;5122213;27;20069;-71
2022/09/30 11:09:59;;;;;;;10.70;6.13;;;15.90;99.90;;;;;;5130376;27;20978;-71
2022/09/30 11:12:42;;;;;;;10.38;5.97;;;16.00;99.90;;;;;;5130579;27;20082;-67
2022/09/30 11:15:33;;;;;;;10.88;6.00;;;16.20;99.90;;;;;;5099889;28;20046;-71
2022/09/30 11:18:05;;;;;;;11.23;5.93;;;16.50;99.90;;;;;;5110455;28;20054;-71
2022/09/30 11:20:40;;;;;;;10.35;6.47;;;16.90;99.90;;;;;;5110007;28;20473;-70
2022/09/30 11:23:06;;;;;;;13.95;6.40;;;17.30;99.90;;;;;;5093617;28;20388;-70
2022/09/30 11:25:49;;;;;;;;;;;17.70;99.90;;;;;;5111364;28;20040;-71
2022/09/30 11:28:36;;;;;;;13.05;6.85;;;18.00;99.90;;;;;;5111409;28;19968;-71
2022/09/30 11:31:20;;;;;;;;;;;18.30;99.90;;;;;;5112176;27;20038;-71
2022/09/30 11:34:16;;;;;;;11.75;6.75;;;18.50;99.90;;;;;;5116950;27;20371;-72
2022/09/30 11:37:07;;;;;;;14.82;7.50;;;18.70;99.90;;;;;;5132035;27;20130;-74
2022/09/30 11:40:01;;;;;;;12.50;7.45;;;18.60;99.90;;;;;;5133516;27;20401;-73
2022/09/30 11:42:55;;;;;;;12.30;7.10;;;18.80;99.80;;;;;;5151921;27;20106;-69
2022/09/30 11:45:49;;;;;;;10.88;6.50;;;18.70;99.90;;;;;;5107597;27;20073;-71
2022/09/30 11:48:39;;;;;;;15.85;8.02;;;18.20;98.70;;;;;;5132731;27;20050;-71
2022/09/30 11:51:17;;;;;;;12.80;7.78;;;18.00;99.90;;;;;;5152003;27;20057;-70
2022/09/30 11:54:10;;;;;;;12.50;7.25;;;18.40;99.90;;;;;;5152098;27;20630;-76
2022/09/30 11:56:39;;;;;;;12.80;7.47;;;18.90;94.40;;;;;;5117667;27;20043;-72
2022/09/30 11:59:22;;;;;;;14.15;8.07;;;19.10;96.50;;;;;;5093190;28;20043;-76
2022/09/30 12:01:52;;;;;;;16.45;8.38;;;19.20;93.70;;;;;;5109586;28;20129;-76
2022/09/30 12:04:41;;;;;;;13.07;7.93;;;19.40;94.90;;;;;;5092441;28;20079;-71
2022/09/30 12:07:20;;;;;;;14.77;8.43;;;19.50;90.70;;;;;;5128385;27;20031;-73
2022/09/30 12:09:59;;;;;;;13.95;8.57;;;19.60;91.60;;;;;;5131922;27;20043;-72
2022/09/30 12:12:25;;;;;;;12.30;7.43;;;19.70;93.00;;;;;;5120287;27;20487;-75
2022/09/30 12:14:59;;;;;;;;;;;19.90;93.50;;;;;;5132761;27;20039;-72
2022/09/30 12:18:04;;;;;;;12.23;6.88;;;20.00;83.50;;;;;;5092618;28;19915;-74
2022/09/30 12:20:31;;;;;;;12.77;7.35;;;20.20;82.70;;;;;;5090868;28;20054;-72
2022/09/30 12:23:06;;;;;;;13.52;6.55;;;20.30;90.40;;;;;;5124229;27;20070;-73
2022/09/30 12:25:40;;;;;;;12.52;7.10;;;20.50;89.30;;;;;;5138401;27;20042;-74
2022/09/30 12:31:53;;;;;;;10.88;6.15;;;21.40;76.70;;;;;;5128623;27;20133;-74
2022/09/30 12:34:21;;;;;;;10.30;5.45;;;21.90;79.30;;;;;;5116424;27;20123;-72
2022/09/30 12:37:31;;;;;;;9.95;5.93;;;21.40;80.00;;;;;;5112874;27;20071;-74
2022/09/30 12:40:21;;;;;;;8.65;5.32;;;21.50;79.80;;;;;;5096854;27;20051;-72
2022/09/30 12:43:32;;;;;;;8.05;5.28;;;21.90;74.80;;;;;;5150658;27;20035;-75
2022/09/30 12:46:01;;;;;;;9.65;5.30;;;21.60;71.30;;;;;;5113275;27;20122;-73
2022/09/30 12:48:56;;;;;;;8.02;4.93;;;21.30;76.20;;;;;;5139500;27;20543;-74
2022/09/30 12:51:33;;;;;;;11.20;5.45;;;21.80;69.20;;;;;;5147295;27;20510;-74
2022/09/30 12:54:04;;;;;;;9.82;5.30;;;21.90;71.50;;;;;;5123472;27;20058;-74
2022/09/30 12:56:31;;;;;;;8.32;4.80;;;22.00;74.00;;;;;;5130218;27;20044;-73
2022/09/30 12:58:59;;;;;;;8.73;4.90;;;22.40;74.80;;;;;;5114366;28;20043;-72
2022/09/30 13:01:28;;;;;;;10.40;5.53;;;22.60;74.50;;;;;;5131825;27;20140;-68
2022/09/30 13:03:59;;;;;;;8.90;5.28;;;22.80;71.80;;;;;;5115553;27;20053;-77
2022/09/30 13:06:27;;;;;;;9.02;5.32;;;22.60;70.80;;;;;;5115892;27;20055;-71
2022/09/30 13:08:56;;;;;;;10.48;6.10;;;22.30;70.40;;;;;;5134442;27;20150;-71
2022/09/30 13:11:40;;;;;;;11.55;6.38;;;21.70;69.20;;;;;;5134218;27;20468;-70
2022/09/30 13:14:23;;;;;;;10.35;6.22;;;21.10;66.40;;;;;;5134960;27;20055;-71
2022/09/30 13:17:06;;;;;;;10.25;6.55;;;20.60;68.30;;;;;;5120162;27;20055;-76
2022/09/30 13:19:39;;;;;;;10.93;6.43;;;20.20;70.20;;;;;;5130202;27;20043;-75
2022/09/30 13:22:20;;;;;;;10.30;6.32;;;19.70;70.70;;;;;;5129923;27;20093;-73
2022/09/30 13:25:01;;;;;;;11.25;6.53;;;19.70;71.30;;;;;;5137809;27;20035;-72
2022/09/30 13:27:39;;;;;;;10.95;6.07;;;19.80;70.20;;;;;;5133813;27;20058;-72
2022/09/30 13:30:16;;;;;;;10.13;5.60;;;20.00;70.50;;;;;;5131527;27;20464;-73